This is the latest recevied weather packets stored in our database for station/object BM2MWA-13. If no packets are shown the sender has not sent any weather packets the latest 10 day(s).
| Time | Temp. | Humidity | Pressure | Rain* | Wind** | Luminosity | Snow |
|---|---|---|---|---|---|---|---|
| 1787971023 | 32.78° C | 64% | 998.3 hPa | 0 mm | - | - | - |
| 1787970423 | 32.78° C | 64% | 998.3 hPa | 0 mm | - | - | - |
| 1787969823 | 31.67° C | 68% | 998.4 hPa | 0 mm | - | - | - |
| 1787969224 | 31.67° C | 68% | 998.6 hPa | 0 mm | - | - | - |
| 1787968623 | 31.67° C | 69% | 998.7 hPa | 0 mm | - | - | - |
| 1787968023 | 31.11° C | 71% | 998.8 hPa | 0 mm | - | - | - |
| 1787967424 | 31.11° C | 71% | 998.7 hPa | 0 mm | - | - | - |
| 1787966823 | 31.11° C | 69% | 998.6 hPa | 0 mm | - | - | - |
| 1787966223 | 30.56° C | 71% | 998.7 hPa | 0 mm | - | - | - |
| 1787965623 | 30.56° C | 73% | 998.9 hPa | 0 mm | - | - | - |
| 1787965023 | 31.11° C | 73% | 998.8 hPa | 0 mm | - | - | - |
| 1787964423 | 30.56° C | 73% | 998.7 hPa | 0 mm | - | - | - |
| 1787963823 | 30° C | 75% | 998.7 hPa | 0 mm | - | - | - |
| 1787963223 | 30.56° C | 74% | 998.9 hPa | 0 mm | - | - | - |
| 1787962623 | 30° C | 76% | 998.8 hPa | 0 mm | - | - | - |
| 1787962024 | 29.44° C | 76% | 998.8 hPa | 0 mm | - | - | - |
| 1787961423 | 29.44° C | 76% | 998.7 hPa | 0 mm | - | - | - |
| 1787960823 | 28.89° C | 77% | 998.5 hPa | 0 mm | - | - | - |
| 1787960224 | 28.89° C | 77% | 998.6 hPa | 0 mm | - | - | - |
| 1787959623 | 28.33° C | 79% | 998.5 hPa | 0 mm | - | - | - |
| 1787959030 | 28.33° C | 79% | 998.4 hPa | 0 mm | - | - | - |
| 1787958423 | 28.33° C | 80% | 998.5 hPa | 0 mm | - | - | - |
| 1787957823 | 28.33° C | 80% | 998.3 hPa | 0 mm | - | - | - |
| 1787957223 | 28.33° C | 82% | 998.3 hPa | 0 mm | - | - | - |
| 1787956623 | 28.33° C | 81% | 998.2 hPa | 0 mm | - | - | - |
* Rain latest hour (hover to see other rain measurements)
** Current wind speed in m/s (hover to see current wind gust speed)